Time;durP1;ratioP1;P1;durP2;ratioP2;P2;SDS_P1;SDS_P2;PMS_P1;PMS_P2;Temp;Humidity;BMP_temperature;BMP_pressure;BME280_temperature;BME280_humidity;BME280_pressure;Samples;Min_cycle;Max_cycle;Signal;HPM_P1;HPM_P2
2021/12/15 00:00:17;;;;;;;53.67;24.63;;;9.60;99.90;;;;;;5065105;28;20055;-79
2021/12/15 00:02:44;;;;;;;54.00;23.40;;;9.60;99.90;;;;;;5094899;28;20058;-81
2021/12/15 00:05:13;;;;;;;47.50;24.27;;;9.70;99.90;;;;;;5095804;28;20068;-88
2021/12/15 00:07:39;;;;;;;53.38;24.00;;;9.60;99.90;;;;;;5076781;28;20036;-86
2021/12/15 00:10:06;;;;;;;46.03;23.38;;;9.60;99.90;;;;;;5097436;28;20459;-85
2021/12/15 00:12:32;;;;;;;58.70;23.90;;;9.60;99.90;;;;;;5101143;28;20055;-87
2021/12/15 00:14:57;;;;;;;44.13;24.08;;;9.60;99.90;;;;;;5091684;28;20553;-87
2021/12/15 00:17:23;;;;;;;56.65;25.77;;;9.70;99.90;;;;;;5080138;28;20098;-86
2021/12/15 00:19:50;;;;;;;54.95;25.00;;;9.70;99.90;;;;;;5083837;28;20556;-88
2021/12/15 00:22:16;;;;;;;48.53;22.85;;;9.70;99.90;;;;;;5076435;28;20036;-87
2021/12/15 00:24:43;;;;;;;48.63;23.33;;;9.70;99.90;;;;;;5078602;28;20056;-87
2021/12/15 00:27:08;;;;;;;54.58;24.23;;;9.60;99.90;;;;;;5089624;28;20036;-86
2021/12/15 00:29:34;;;;;;;45.22;23.30;;;9.60;99.90;;;;;;5088819;28;20645;-86
2021/12/15 00:32:03;;;;;;;46.85;22.60;;;9.60;99.90;;;;;;5088958;28;20097;-89
2021/12/15 00:34:33;;;;;;;57.25;24.83;;;9.60;99.90;;;;;;5072250;28;20054;-87
2021/12/15 00:36:59;;;;;;;64.75;25.75;;;9.70;99.90;;;;;;5079507;28;20048;-84
2021/12/15 00:39:27;;;;;;;56.35;26.75;;;9.60;99.90;;;;;;5084894;28;20024;-86
2021/12/15 00:41:52;;;;;;;47.75;22.83;;;9.60;99.90;;;;;;5085202;28;20505;-86
2021/12/15 00:44:18;;;;;;;40.75;22.10;;;9.60;99.90;;;;;;5065914;28;20036;-86
2021/12/15 00:46:44;;;;;;;54.75;27.25;;;9.60;99.90;;;;;;5082428;28;20113;-87
2021/12/15 00:49:11;;;;;;;60.15;27.05;;;9.60;99.90;;;;;;5061736;28;20056;-85
2021/12/15 00:51:38;;;;;;;58.30;24.70;;;9.60;99.90;;;;;;5077613;28;20048;-84
2021/12/15 00:54:05;;;;;;;57.17;26.55;;;9.60;99.90;;;;;;5093691;28;20571;-86
2021/12/15 00:56:31;;;;;;;56.90;24.38;;;9.70;99.90;;;;;;5065232;28;20089;-88
2021/12/15 00:58:57;;;;;;;48.80;24.90;;;9.60;99.90;;;;;;5079134;28;20064;-87
2021/12/15 01:01:23;;;;;;;42.33;24.98;;;9.70;99.90;;;;;;5060050;28;20106;-87
2021/12/15 01:03:50;;;;;;;42.88;23.95;;;9.70;99.90;;;;;;5048833;28;20036;-85
2021/12/15 01:06:19;;;;;;;50.55;26.45;;;9.70;99.90;;;;;;5070991;28;20078;-84
2021/12/15 01:08:52;;;;;;;52.03;26.27;;;9.80;99.90;;;;;;5083113;28;20403;-87
2021/12/15 01:11:31;;;;;;;52.63;25.42;;;9.70;99.90;;;;;;5088459;28;20054;-86
2021/12/15 01:19:47;;;;;;;51.22;24.55;;;9.80;99.90;;;;;;5074199;28;20045;-87
2021/12/15 01:19:54;;;;;;;53.45;26.33;;;9.80;99.90;;;;;;5089188;28;20115;-88
2021/12/15 01:22:34;;;;;;;54.95;28.42;;;9.70;99.90;;;;;;5074044;28;20044;-86
2021/12/15 01:25:26;;;;;;;58.22;30.23;;;9.70;99.90;;;;;;5091544;28;20047;-89
2021/12/15 01:27:52;;;;;;;61.38;27.88;;;9.80;99.90;;;;;;5076563;28;20142;-89
2021/12/15 01:30:25;;;;;;;59.45;30.13;;;9.80;99.90;;;;;;5094075;28;20136;-87
2021/12/15 01:32:50;;;;;;;55.08;27.48;;;9.80;99.90;;;;;;5045498;28;20063;-85
2021/12/15 01:35:17;;;;;;;55.97;30.63;;;9.70;99.90;;;;;;5073410;28;20482;-87
2021/12/15 01:37:45;;;;;;;64.32;28.02;;;9.80;99.90;;;;;;5068945;28;20044;-84
2021/12/15 01:40:19;;;;;;;62.83;31.88;;;9.80;99.90;;;;;;5094739;28;20068;-87
2021/12/15 01:42:45;;;;;;;61.08;31.58;;;9.80;99.90;;;;;;5085855;28;20494;-84
2021/12/15 01:48:14;;;;;;;65.13;29.17;;;9.80;99.90;;;;;;5060286;28;20498;-88
2021/12/15 01:50:41;;;;;;;60.40;33.03;;;9.90;99.90;;;;;;5086274;28;20032;-85
2021/12/15 01:53:09;;;;;;;48.55;27.60;;;9.80;99.90;;;;;;5073839;28;20502;-89
2021/12/15 01:55:34;;;;;;;64.53;30.75;;;9.90;99.90;;;;;;5092553;28;20032;-85
2021/12/15 01:58:00;;;;;;;68.60;28.90;;;9.80;99.90;;;;;;5090867;28;20078;-88
2021/12/15 02:00:34;;;;;;;66.68;30.10;;;9.90;99.90;;;;;;5068623;28;20558;-85
2021/12/15 02:03:00;;;;;;;62.30;30.30;;;9.80;99.90;;;;;;5087832;28;20044;-88
2021/12/15 02:05:27;;;;;;;54.90;29.98;;;9.90;99.90;;;;;;5080564;28;20055;-87
2021/12/15 02:07:53;;;;;;;65.57;29.85;;;9.90;99.90;;;;;;5066846;28;20040;-88
2021/12/15 02:10:22;;;;;;;57.08;29.92;;;9.90;99.90;;;;;;5084306;28;20043;-88
2021/12/15 02:12:48;;;;;;;56.30;29.00;;;9.80;99.90;;;;;;5074031;28;20043;-88
2021/12/15 02:15:20;;;;;;;57.25;31.17;;;9.80;99.90;;;;;;5088178;28;20091;-80
2021/12/15 02:17:47;;;;;;;61.17;30.40;;;9.90;99.90;;;;;;5085525;28;20524;-88
2021/12/15 02:20:16;;;;;;;59.90;32.83;;;9.80;99.90;;;;;;5070549;28;20054;-78
2021/12/15 02:22:42;;;;;;;65.83;32.33;;;9.90;99.90;;;;;;5081900;28;20498;-87
2021/12/15 02:25:11;;;;;;;51.35;29.15;;;9.80;99.90;;;;;;5092699;28;20462;-86
2021/12/15 02:27:38;;;;;;;62.85;30.50;;;9.90;99.90;;;;;;5094278;28;20044;-87
2021/12/15 02:38:09;;;;;;;51.80;29.00;;;9.80;99.90;;;;;;5085523;28;20379;-88
2021/12/15 02:40:34;;;;;;;67.20;32.92;;;9.80;99.90;;;;;;5071263;28;20050;-86
2021/12/15 02:43:00;;;;;;;51.78;31.00;;;9.80;99.90;;;;;;5096767;28;20083;-86
2021/12/15 02:45:26;;;;;;;59.17;31.27;;;9.80;99.90;;;;;;5079983;28;20036;-84
2021/12/15 02:47:52;;;;;;;68.22;31.65;;;9.80;99.90;;;;;;5087159;28;20125;-85
2021/12/15 02:50:23;;;;;;;51.08;27.98;;;9.80;99.90;;;;;;5097355;28;20024;-86
2021/12/15 02:52:49;;;;;;;62.13;34.20;;;9.90;99.90;;;;;;5100265;28;20040;-84
2021/12/15 02:55:16;;;;;;;65.65;30.58;;;9.80;99.90;;;;;;5110605;28;20028;-83
2021/12/15 02:57:43;;;;;;;59.53;31.23;;;9.80;99.90;;;;;;5076876;28;20506;-89
2021/12/15 03:00:23;;;;;;;55.17;32.13;;;9.80;99.90;;;;;;5064513;28;20052;-89
2021/12/15 03:05:24;;;;;;;60.63;32.45;;;9.70;99.90;;;;;;5063977;28;20494;-88
2021/12/15 03:08:06;;;;;;;67.32;34.15;;;9.70;99.90;;;;;;5078584;28;20039;-88
2021/12/15 03:16:01;;;;;;;62.72;33.25;;;9.70;99.90;;;;;;5060487;28;20044;-87
2021/12/15 03:18:28;;;;;;;58.05;32.47;;;9.80;99.90;;;;;;5087561;28;20040;-88
2021/12/15 03:21:11;;;;;;;55.40;29.83;;;9.80;99.90;;;;;;5080816;28;20047;-85
2021/12/15 03:23:52;;;;;;;62.55;33.63;;;9.80;99.90;;;;;;5085279;28;20032;-88
2021/12/15 03:26:24;;;;;;;61.63;33.55;;;9.80;99.90;;;;;;5082627;28;20051;-87
2021/12/15 03:39:30;;;;;;;56.05;31.70;;;9.80;99.90;;;;;;5066205;28;20452;-88
2021/12/15 03:42:02;;;;;;;63.08;33.20;;;9.70;99.90;;;;;;5092284;28;20048;-85
2021/12/15 03:44:31;;;;;;;60.35;33.28;;;9.70;99.90;;;;;;5080161;28;20055;-85
2021/12/15 03:46:59;;;;;;;57.47;30.07;;;9.80;99.90;;;;;;5086202;28;20098;-89
2021/12/15 03:49:25;;;;;;;56.00;29.17;;;9.80;99.90;;;;;;5082582;28;20137;-86
2021/12/15 03:51:50;;;;;;;58.53;31.30;;;9.80;99.90;;;;;;5061801;28;20483;-87
2021/12/15 03:54:17;;;;;;;55.70;29.17;;;9.80;99.90;;;;;;5080224;28;20044;-87
2021/12/15 03:56:44;;;;;;;63.85;31.55;;;9.70;99.90;;;;;;5077468;28;20049;-83
2021/12/15 03:59:11;;;;;;;58.65;28.65;;;9.80;99.90;;;;;;5046288;28;20045;-87
2021/12/15 04:01:38;;;;;;;58.63;28.80;;;9.70;99.90;;;;;;5061290;28;20056;-87
2021/12/15 04:04:04;;;;;;;51.15;28.67;;;9.70;99.90;;;;;;5059083;28;20044;-85
2021/12/15 04:06:34;;;;;;;56.33;29.35;;;9.80;99.90;;;;;;5080159;28;20052;-91
2021/12/15 04:09:01;;;;;;;53.78;28.15;;;9.70;99.90;;;;;;5083274;28;20044;-86
2021/12/15 04:11:33;;;;;;;49.22;28.92;;;9.70;99.90;;;;;;5090359;28;20044;-85
2021/12/15 04:14:12;;;;;;;58.80;30.33;;;9.70;99.90;;;;;;5083474;28;20510;-86
2021/12/15 04:16:44;;;;;;;60.45;30.48;;;9.80;99.90;;;;;;5072802;28;20056;-88
2021/12/15 04:19:14;;;;;;;56.20;29.98;;;9.80;99.90;;;;;;5087646;28;20142;-86
2021/12/15 04:21:40;;;;;;;52.20;28.90;;;9.70;99.90;;;;;;5077141;28;20450;-88
2021/12/15 04:24:07;;;;;;;59.83;30.73;;;9.80;99.90;;;;;;5091079;28;20119;-89
2021/12/15 04:26:32;;;;;;;54.15;29.13;;;9.70;99.90;;;;;;5069462;28;20040;-89
2021/12/15 04:28:58;;;;;;;63.90;30.95;;;9.80;99.90;;;;;;5078188;28;20032;-87
2021/12/15 04:31:28;;;;;;;57.30;31.45;;;9.80;99.90;;;;;;5072007;28;20048;-88
2021/12/15 04:33:59;;;;;;;57.20;29.48;;;9.80;99.90;;;;;;5090368;28;20043;-80
2021/12/15 04:36:28;;;;;;;63.25;31.92;;;9.70;99.90;;;;;;5081644;28;20506;-86
2021/12/15 04:38:56;;;;;;;58.47;31.67;;;9.70;99.90;;;;;;5067982;28;20044;-79
2021/12/15 04:41:22;;;;;;;73.00;33.08;;;9.70;99.90;;;;;;5090575;28;20086;-87
2021/12/15 04:43:56;;;;;;;61.85;32.25;;;9.70;99.90;;;;;;5056317;28;20036;-86
2021/12/15 04:46:24;;;;;;;61.45;30.63;;;9.70;99.90;;;;;;5053460;28;20059;-86
2021/12/15 04:48:50;;;;;;;58.80;30.77;;;9.80;99.90;;;;;;5074831;28;20086;-86
2021/12/15 04:51:18;;;;;;;66.70;33.75;;;9.70;99.90;;;;;;5069564;28;20406;-86
2021/12/15 04:53:45;;;;;;;60.25;32.28;;;9.70;99.90;;;;;;5073845;28;20068;-85
2021/12/15 04:56:11;;;;;;;61.38;31.48;;;9.70;99.90;;;;;;5045513;28;20052;-88
2021/12/15 04:58:37;;;;;;;58.15;31.92;;;9.60;99.90;;;;;;5078362;28;20028;-86
2021/12/15 05:01:08;;;;;;;54.00;31.88;;;9.70;99.90;;;;;;5089745;28;20052;-87
2021/12/15 05:03:34;;;;;;;60.05;33.47;;;9.80;99.90;;;;;;5045717;28;20492;-86
2021/12/15 05:06:00;;;;;;;68.57;32.63;;;9.70;99.90;;;;;;5077146;28;20044;-87
2021/12/15 05:08:26;;;;;;;69.72;34.00;;;9.70;99.90;;;;;;5087304;28;20036;-88
2021/12/15 05:10:55;;;;;;;79.40;34.00;;;9.70;99.90;;;;;;5067969;28;20067;-87
2021/12/15 05:13:21;;;;;;;61.00;31.85;;;9.80;99.90;;;;;;5077311;28;20123;-86
2021/12/15 05:15:46;;;;;;;67.63;33.70;;;9.70;99.90;;;;;;5084144;28;20063;-85
2021/12/15 05:18:13;;;;;;;56.83;31.10;;;9.80;99.90;;;;;;5089263;28;20063;-78
2021/12/15 05:20:40;;;;;;;59.85;33.05;;;9.70;99.90;;;;;;5044463;28;20135;-86
2021/12/15 05:23:07;;;;;;;66.53;30.75;;;9.70;99.90;;;;;;5083659;28;20045;-85
2021/12/15 05:25:34;;;;;;;65.00;35.00;;;9.70;99.90;;;;;;5082780;28;20123;-87
2021/12/15 05:28:00;;;;;;;75.68;34.40;;;9.70;99.90;;;;;;5067105;28;20380;-88
2021/12/15 05:30:25;;;;;;;56.70;31.25;;;9.80;99.90;;;;;;5084708;28;20043;-86
2021/12/15 05:32:51;;;;;;;69.78;32.75;;;9.70;99.90;;;;;;5096909;28;20442;-88
2021/12/15 05:35:22;;;;;;;60.33;30.77;;;9.80;99.90;;;;;;5089080;28;20101;-84
2021/12/15 05:37:50;;;;;;;64.07;32.28;;;9.80;99.90;;;;;;5087028;28;20083;-84
2021/12/15 05:40:16;;;;;;;61.55;29.45;;;9.70;99.90;;;;;;5104777;28;20051;-81
2021/12/15 05:42:42;;;;;;;57.97;29.30;;;9.80;99.90;;;;;;5087364;28;20109;-87
2021/12/15 05:45:09;;;;;;;68.68;30.25;;;9.80;99.90;;;;;;5059984;28;20131;-88
2021/12/15 05:47:35;;;;;;;59.47;32.15;;;9.80;99.90;;;;;;5088925;28;20040;-87
2021/12/15 05:50:02;;;;;;;53.53;30.52;;;9.70;99.90;;;;;;5096813;28;20413;-84
2021/12/15 05:52:30;;;;;;;61.65;30.80;;;9.80;99.90;;;;;;5083729;28;20050;-87
2021/12/15 05:54:57;;;;;;;60.33;32.42;;;9.80;99.90;;;;;;5070581;28;20048;-87
2021/12/15 05:57:23;;;;;;;55.97;29.55;;;9.80;99.90;;;;;;5084771;28;20115;-87
2021/12/15 05:59:50;;;;;;;59.33;29.88;;;9.70;99.90;;;;;;5056905;28;20044;-86
2021/12/15 06:02:16;;;;;;;58.38;30.85;;;9.80;99.90;;;;;;5084710;28;20039;-87
2021/12/15 06:04:42;;;;;;;65.70;30.83;;;9.80;99.90;;;;;;5070778;28;20039;-87
2021/12/15 06:07:08;;;;;;;53.00;26.80;;;9.80;99.90;;;;;;5057339;28;20062;-87
2021/12/15 06:09:34;;;;;;;49.72;27.30;;;9.80;99.90;;;;;;5084447;28;20048;-86
2021/12/15 06:12:01;;;;;;;56.92;27.08;;;9.80;99.90;;;;;;5090238;28;20028;-86
2021/12/15 06:14:28;;;;;;;61.97;28.40;;;9.70;99.90;;;;;;5074809;28;20406;-86
2021/12/15 06:16:59;;;;;;;49.78;27.30;;;9.80;99.90;;;;;;5071167;28;20134;-86
2021/12/15 06:19:24;;;;;;;50.65;27.40;;;9.80;99.90;;;;;;5061897;28;20128;-87
2021/12/15 06:21:50;;;;;;;51.35;26.42;;;9.70;99.90;;;;;;5056733;28;20135;-86
2021/12/15 06:24:16;;;;;;;56.35;29.55;;;9.80;99.90;;;;;;5061165;28;20044;-87
2021/12/15 06:26:42;;;;;;;57.97;28.85;;;9.80;99.90;;;;;;5054549;28;20054;-88
2021/12/15 06:29:08;;;;;;;53.08;27.50;;;9.80;99.90;;;;;;5071177;28;20040;-86
2021/12/15 06:31:33;;;;;;;54.65;26.20;;;9.80;99.90;;;;;;5085014;28;20138;-86
2021/12/15 06:33:59;;;;;;;48.65;27.92;;;9.70;99.90;;;;;;5064058;28;20147;-87
2021/12/15 06:36:27;;;;;;;49.80;28.70;;;9.70;99.90;;;;;;5071203;28;20480;-86
2021/12/15 06:38:54;;;;;;;57.58;27.27;;;9.80;99.90;;;;;;5087294;28;20066;-87
2021/12/15 06:41:21;;;;;;;46.83;26.60;;;9.80;99.90;;;;;;5072127;28;20062;-86
2021/12/15 06:43:51;;;;;;;51.78;26.50;;;9.70;99.90;;;;;;5071906;28;20045;-87
2021/12/15 06:46:41;;;;;;;58.97;30.77;;;9.70;99.90;;;;;;5048297;28;20044;-89
2021/12/15 06:59:59;;;;;;;45.97;26.23;;;9.80;99.90;;;;;;5054970;28;20450;-86
2021/12/15 07:02:25;;;;;;;44.80;25.10;;;9.80;99.90;;;;;;5055940;28;20050;-87
2021/12/15 07:04:51;;;;;;;46.78;25.23;;;9.70;99.90;;;;;;5084389;28;20032;-86
2021/12/15 07:07:17;;;;;;;46.08;24.67;;;9.80;99.90;;;;;;5083949;28;20555;-86
2021/12/15 07:09:42;;;;;;;56.30;28.42;;;9.70;99.90;;;;;;5070980;28;20051;-76
2021/12/15 07:12:09;;;;;;;48.25;25.90;;;9.70;99.90;;;;;;5053912;28;20044;-84
2021/12/15 07:14:34;;;;;;;48.25;25.50;;;9.80;99.90;;;;;;5057572;28;20060;-87
2021/12/15 07:17:02;;;;;;;46.80;23.33;;;9.70;99.90;;;;;;5056820;28;20044;-86
2021/12/15 07:22:07;;;;;;;45.67;22.08;;;9.70;99.90;;;;;;5055012;28;20127;-79
2021/12/15 07:24:36;;;;;;;50.42;24.98;;;9.70;99.90;;;;;;5085732;28;20048;-82
2021/12/15 07:27:04;;;;;;;46.92;23.40;;;9.70;99.90;;;;;;5075227;28;20494;-77
2021/12/15 07:29:31;;;;;;;39.33;20.75;;;9.70;99.90;;;;;;5051645;28;20036;-88
2021/12/15 07:31:58;;;;;;;42.40;24.23;;;9.70;99.90;;;;;;5037848;28;20055;-87
2021/12/15 07:34:23;;;;;;;38.58;21.40;;;9.70;99.90;;;;;;5068296;28;20087;-90
2021/12/15 07:36:49;;;;;;;40.33;19.67;;;9.70;99.90;;;;;;5071638;28;20071;-87
2021/12/15 07:39:15;;;;;;;36.20;21.10;;;9.60;99.90;;;;;;5062976;28;20048;-84
2021/12/15 07:41:50;;;;;;;33.10;18.65;;;9.60;99.90;;;;;;5075010;28;20047;-88
2021/12/15 07:44:18;;;;;;;41.25;21.08;;;9.60;99.90;;;;;;5052528;28;20490;-79
2021/12/15 07:46:44;;;;;;;41.40;18.38;;;9.60;99.90;;;;;;5075643;28;20040;-88
2021/12/15 07:49:10;;;;;;;38.33;19.02;;;9.60;99.90;;;;;;5078201;28;20135;-89
2021/12/15 07:51:36;;;;;;;38.70;20.95;;;9.60;99.90;;;;;;5073375;28;20036;-89
2021/12/15 07:54:03;;;;;;;29.75;18.63;;;9.50;99.90;;;;;;5084575;28;20821;-90
2021/12/15 07:56:29;;;;;;;38.35;20.13;;;9.50;99.90;;;;;;5072855;28;20079;-87
2021/12/15 07:58:54;;;;;;;38.63;21.02;;;9.60;99.90;;;;;;5068915;28;20525;-89
2021/12/15 08:01:22;;;;;;;36.88;20.38;;;9.50;99.90;;;;;;5080700;28;20051;-91
2021/12/15 08:03:51;;;;;;;48.75;22.15;;;9.60;99.90;;;;;;5072555;28;20048;-90
2021/12/15 08:06:18;;;;;;;36.83;20.80;;;9.50;99.90;;;;;;5063062;28;20170;-91
2021/12/15 08:08:43;;;;;;;45.55;20.33;;;9.50;99.90;;;;;;5053047;28;20299;-87
2021/12/15 08:11:09;;;;;;;50.60;23.77;;;9.50;99.90;;;;;;5058944;28;20456;-87
2021/12/15 08:13:36;;;;;;;40.47;19.90;;;9.50;99.90;;;;;;5071035;28;20554;-89
2021/12/15 08:16:03;;;;;;;49.28;22.83;;;9.60;99.90;;;;;;5070358;28;20183;-81
2021/12/15 08:18:29;;;;;;;37.83;19.35;;;9.50;99.90;;;;;;5087706;28;20071;-93
2021/12/15 08:20:56;;;;;;;39.45;20.90;;;9.60;99.90;;;;;;5057036;28;20136;-89
2021/12/15 08:23:23;;;;;;;44.08;21.63;;;9.70;99.90;;;;;;5079697;28;20048;-89
2021/12/15 08:25:49;;;;;;;30.35;18.17;;;9.60;99.90;;;;;;5087672;28;20040;-89
2021/12/15 08:28:15;;;;;;;43.50;21.85;;;9.60;99.90;;;;;;5080739;28;20052;-78
2021/12/15 08:30:43;;;;;;;36.78;18.92;;;9.60;99.90;;;;;;5081409;28;20055;-89
2021/12/15 08:33:12;;;;;;;36.85;21.25;;;9.70;99.90;;;;;;5080938;28;20048;-86
2021/12/15 08:36:03;;;;;;;41.47;22.10;;;9.60;99.90;;;;;;5100234;28;20046;-87
2021/12/15 08:38:32;;;;;;;35.03;21.20;;;9.60;99.90;;;;;;5070996;28;20056;-88
2021/12/15 08:40:59;;;;;;;40.80;20.35;;;9.60;99.90;;;;;;5077542;28;20044;-89
2021/12/15 08:43:25;;;;;;;49.72;22.65;;;9.70;99.90;;;;;;5074902;28;20127;-88
2021/12/15 08:46:01;;;;;;;44.40;21.25;;;9.70;99.90;;;;;;5080393;28;20041;-80
2021/12/15 08:48:28;;;;;;;42.53;20.20;;;9.60;99.90;;;;;;5100904;28;20029;-89
2021/12/15 08:50:54;;;;;;;34.50;19.77;;;9.60;99.90;;;;;;5087983;28;20040;-81
2021/12/15 08:53:20;;;;;;;45.05;23.55;;;9.60;99.90;;;;;;5070563;28;20151;-90
2021/12/15 08:55:49;;;;;;;41.55;18.63;;;9.60;99.90;;;;;;5078596;28;20533;-84
2021/12/15 08:58:18;;;;;;;36.13;20.55;;;9.60;99.90;;;;;;5097227;28;20072;-79
2021/12/15 09:00:46;;;;;;;48.63;23.33;;;9.60;99.90;;;;;;5074324;28;20454;-83
2021/12/15 09:03:13;;;;;;;44.92;21.77;;;9.60;99.90;;;;;;5062149;28;20490;-81
2021/12/15 09:05:40;;;;;;;37.25;20.05;;;9.60;99.90;;;;;;5076687;28;20051;-82
2021/12/15 09:08:05;;;;;;;57.53;22.58;;;9.60;99.90;;;;;;5090596;28;20076;-82
2021/12/15 09:10:33;;;;;;;36.13;19.73;;;9.70;99.90;;;;;;5072726;28;20039;-85
2021/12/15 09:13:00;;;;;;;32.25;18.67;;;9.90;99.90;;;;;;5089369;28;20033;-86
2021/12/15 09:15:26;;;;;;;36.20;19.10;;;9.80;99.90;;;;;;5090205;28;20094;-89
2021/12/15 09:17:53;;;;;;;39.85;19.05;;;10.00;99.90;;;;;;5070886;28;20040;-84
2021/12/15 09:20:22;;;;;;;40.22;16.88;;;10.10;99.90;;;;;;5064257;28;20036;-87
2021/12/15 09:22:49;;;;;;;26.50;14.90;;;10.10;99.90;;;;;;5074396;28;20048;-91
2021/12/15 09:25:16;;;;;;;31.75;15.57;;;10.20;99.90;;;;;;5078758;28;20393;-79
2021/12/15 09:27:43;;;;;;;28.98;15.75;;;10.20;99.90;;;;;;5071059;28;20063;-87
2021/12/15 09:30:20;;;;;;;27.85;16.23;;;10.20;99.90;;;;;;5054752;28;20090;-82
2021/12/15 09:32:48;;;;;;;31.88;17.63;;;10.20;99.90;;;;;;5072202;28;20064;-85
2021/12/15 09:35:16;;;;;;;27.98;17.38;;;10.10;99.90;;;;;;5075414;28;20044;-80
2021/12/15 09:37:43;;;;;;;33.15;17.63;;;10.20;99.90;;;;;;5079950;28;20113;-86
2021/12/15 09:40:11;;;;;;;39.17;19.23;;;10.20;99.90;;;;;;5084847;28;20047;-88
2021/12/15 09:42:39;;;;;;;57.20;18.75;;;10.20;99.90;;;;;;5079475;28;20072;-84
2021/12/15 10:20:03;;;;;;;27.10;14.02;;;10.00;99.90;;;;;;5089136;28;20044;-77
2021/12/15 10:22:39;;;;;;;25.35;14.07;;;10.00;99.90;;;;;;5073026;28;20101;-88
2021/12/15 10:25:24;;;;;;;29.65;14.77;;;10.10;99.90;;;;;;5096746;28;20055;-85
2021/12/15 10:28:06;;;;;;;24.35;14.07;;;10.10;99.90;;;;;;5079267;28;20048;-85
2021/12/15 10:30:33;;;;;;;35.03;14.48;;;10.10;99.90;;;;;;5094539;28;20048;-84
2021/12/15 10:33:04;;;;;;;30.52;14.00;;;10.10;99.90;;;;;;5091627;28;20040;-87
2021/12/15 10:35:35;;;;;;;21.85;12.18;;;10.20;99.90;;;;;;5064854;28;20047;-85
2021/12/15 10:38:29;;;;;;;24.80;13.02;;;10.20;99.90;;;;;;5081783;28;20070;-87
2021/12/15 10:40:58;;;;;;;22.40;12.95;;;10.20;99.90;;;;;;5080316;28;20394;-85
2021/12/15 10:43:28;;;;;;;19.15;12.60;;;10.20;99.90;;;;;;5074030;28;20127;-85
2021/12/15 10:45:57;;;;;;;;;;;10.20;99.90;;;;;;5089335;28;20040;-80
2021/12/15 10:48:38;;;;;;;21.73;11.10;;;10.30;99.90;;;;;;5083930;28;19927;-83
2021/12/15 10:51:32;;;;;;;19.05;11.25;;;10.30;99.90;;;;;;5053908;28;20063;-84
2021/12/15 10:54:21;;;;;;;16.42;9.63;;;10.30;99.90;;;;;;5064504;28;20040;-87
2021/12/15 10:56:54;;;;;;;14.57;9.30;;;10.30;99.90;;;;;;5069670;28;20479;-86
2021/12/15 10:59:20;;;;;;;15.68;9.60;;;10.30;99.90;;;;;;5088464;28;20044;-87
2021/12/15 11:01:48;;;;;;;13.95;7.65;;;10.40;99.90;;;;;;5090690;28;20063;-88
2021/12/15 11:04:31;;;;;;;13.15;7.43;;;10.40;99.90;;;;;;5080869;28;20048;-77
2021/12/15 11:07:25;;;;;;;14.23;6.78;;;10.30;99.90;;;;;;5099257;28;20039;-85
2021/12/15 11:10:10;;;;;;;11.63;7.38;;;10.30;99.90;;;;;;5046372;28;20044;-85
2021/12/15 11:12:40;;;;;;;18.58;8.13;;;10.40;99.90;;;;;;5073815;28;20048;-82
2021/12/15 11:15:17;;;;;;;15.25;7.80;;;10.40;99.90;;;;;;5074095;28;20060;-86
2021/12/15 11:17:58;;;;;;;11.85;6.55;;;10.40;99.90;;;;;;5070273;28;20520;-77
2021/12/15 11:20:30;;;;;;;17.05;7.32;;;10.40;99.90;;;;;;5068254;28;20059;-87
2021/12/15 11:23:13;;;;;;;12.05;6.68;;;10.40;99.90;;;;;;5075847;28;20037;-88
2021/12/15 11:25:55;;;;;;;13.48;6.80;;;10.40;99.90;;;;;;5059175;28;20037;-88
2021/12/15 11:28:20;;;;;;;13.45;7.47;;;10.40;99.90;;;;;;5066343;28;20087;-85
2021/12/15 11:30:59;;;;;;;16.40;7.32;;;10.40;99.90;;;;;;5071249;28;20044;-85
2021/12/15 11:33:48;;;;;;;11.85;5.88;;;10.50;99.90;;;;;;5062887;28;20062;-87
2021/12/15 11:36:25;;;;;;;14.75;7.50;;;10.40;99.90;;;;;;5061516;28;20463;-77
2021/12/15 11:39:05;;;;;;;15.80;7.18;;;10.40;99.90;;;;;;5082840;28;20020;-79
2021/12/15 11:41:36;;;;;;;13.73;5.87;;;10.50;99.90;;;;;;5085185;28;20080;-87
2021/12/15 11:44:11;;;;;;;14.73;7.28;;;10.50;99.90;;;;;;5064270;28;20048;-87
2021/12/15 11:46:52;;;;;;;16.92;6.82;;;10.50;99.90;;;;;;5053323;28;20136;-88
2021/12/15 11:49:24;;;;;;;18.42;7.50;;;10.50;99.90;;;;;;5056671;28;20406;-88
2021/12/15 11:51:54;;;;;;;19.83;8.18;;;10.50;99.90;;;;;;5062108;28;20037;-86
2021/12/15 11:54:31;;;;;;;13.27;5.60;;;10.50;99.90;;;;;;5062700;28;20128;-86
2021/12/15 11:57:07;;;;;;;11.05;5.07;;;10.50;99.90;;;;;;5057921;28;20413;-88
2021/12/15 11:59:37;;;;;;;14.57;5.88;;;10.50;99.90;;;;;;5053925;28;20048;-85
2021/12/15 12:02:08;;;;;;;17.15;5.85;;;10.50;99.90;;;;;;5057046;28;20056;-85
2021/12/15 12:04:47;;;;;;;10.73;6.25;;;10.60;99.90;;;;;;5058753;28;20037;-87
2021/12/15 12:07:30;;;;;;;14.68;6.45;;;10.60;99.90;;;;;;5061947;28;20071;-79
2021/12/15 12:10:02;;;;;;;17.52;7.63;;;10.60;99.90;;;;;;5041898;28;20029;-86
2021/12/15 12:12:35;;;;;;;13.35;6.50;;;10.60;99.90;;;;;;5062513;28;20045;-87
2021/12/15 12:15:03;;;;;;;15.25;8.50;;;10.50;99.90;;;;;;5059018;28;20056;-87
2021/12/15 12:17:33;;;;;;;17.40;7.03;;;10.50;99.90;;;;;;5073849;28;20048;-86
2021/12/15 12:20:12;;;;;;;24.52;5.97;;;10.50;99.90;;;;;;5079544;28;20482;-83
2021/12/15 12:22:40;;;;;;;10.10;4.82;;;10.50;99.90;;;;;;5067971;28;20498;-84
2021/12/15 12:25:11;;;;;;;16.17;4.63;;;10.50;99.90;;;;;;5089201;28;20493;-83
2021/12/15 12:27:38;;;;;;;15.38;5.88;;;10.40;99.90;;;;;;5069152;28;20051;-83
2021/12/15 12:30:18;;;;;;;11.45;5.47;;;10.40;99.90;;;;;;5091009;28;20529;-85
2021/12/15 12:32:45;;;;;;;13.82;5.57;;;10.40;99.90;;;;;;5074498;28;20080;-85
2021/12/15 12:35:15;;;;;;;10.77;4.30;;;10.30;99.90;;;;;;5074538;28;20067;-87
2021/12/15 12:37:41;;;;;;;9.13;4.10;;;10.50;99.90;;;;;;5061531;28;20052;-86
2021/12/15 12:40:26;;;;;;;19.85;4.85;;;10.50;99.90;;;;;;5073828;28;20164;-89
2021/12/15 12:42:51;;;;;;;10.80;5.22;;;10.40;99.90;;;;;;5063861;28;20142;-89
2021/12/15 12:45:36;;;;;;;12.68;3.72;;;10.50;99.90;;;;;;5075098;28;20033;-86
2021/12/15 12:48:27;;;;;;;11.38;4.05;;;10.40;99.90;;;;;;5074031;28;20037;-80
2021/12/15 12:59:41;;;;;;;7.28;3.30;;;10.10;99.90;;;;;;5086807;28;20044;-89
2021/12/15 13:02:27;;;;;;;10.10;2.85;;;10.00;99.90;;;;;;5059536;28;20048;-89
2021/12/15 13:04:53;;;;;;;7.13;3.20;;;10.10;99.90;;;;;;5069222;28;20040;-89
2021/12/15 13:07:46;;;;;;;13.35;3.78;;;10.00;99.90;;;;;;5072226;28;20440;-87
2021/12/15 13:10:12;;;;;;;10.43;2.55;;;10.00;99.90;;;;;;5054986;28;20044;-87
2021/12/15 13:12:44;;;;;;;8.98;2.53;;;10.00;99.90;;;;;;5070888;28;20166;-86
2021/12/15 13:15:10;;;;;;;10.07;4.55;;;10.00;99.90;;;;;;5067255;28;20053;-88
2021/12/15 13:17:57;;;;;;;6.53;2.42;;;9.90;99.90;;;;;;5075009;28;20074;-87
2021/12/15 13:20:26;;;;;;;8.30;2.17;;;10.00;99.90;;;;;;5070838;28;20137;-90
2021/12/15 13:23:17;;;;;;;6.00;2.33;;;10.00;99.90;;;;;;5060778;28;20684;-88
2021/12/15 13:28:47;;;;;;;6.05;2.13;;;10.00;99.90;;;;;;5061629;28;20471;-87
2021/12/15 13:31:25;;;;;;;8.57;1.67;;;10.00;99.90;;;;;;5048884;28;20508;-81
2021/12/15 13:33:58;;;;;;;3.90;1.77;;;10.00;99.90;;;;;;5069343;28;20131;-89
2021/12/15 13:36:38;;;;;;;9.32;2.50;;;10.10;99.90;;;;;;5054766;28;20041;-88
2021/12/15 13:39:07;;;;;;;;;;;10.00;99.90;;;;;;5051382;28;20052;-87
2021/12/15 13:41:47;;;;;;;6.13;2.10;;;10.00;99.90;;;;;;5067959;28;19929;-89
2021/12/15 13:44:33;;;;;;;20.42;12.48;;;10.00;99.90;;;;;;5063369;28;20608;-84
2021/12/15 13:47:03;;;;;;;11.63;2.85;;;10.00;99.90;;;;;;5062953;28;20044;-88
2021/12/15 13:49:38;;;;;;;8.45;2.47;;;10.00;99.90;;;;;;5067219;28;20029;-89
2021/12/15 13:52:14;;;;;;;5.20;2.10;;;10.00;99.90;;;;;;5065644;28;20117;-85
2021/12/15 13:54:40;;;;;;;6.65;1.63;;;10.00;99.90;;;;;;5071045;28;20045;-87
2021/12/15 13:57:12;;;;;;;9.95;2.15;;;10.00;99.90;;;;;;5053524;28;20559;-88
2021/12/15 13:59:52;;;;;;;3.15;1.65;;;9.90;99.90;;;;;;5055143;28;20131;-88
2021/12/15 14:02:37;;;;;;;7.93;1.58;;;9.90;99.90;;;;;;5061372;28;20071;-88
2021/12/15 14:05:15;;;;;;;5.13;2.40;;;9.90;99.90;;;;;;5070962;28;20088;-85
2021/12/15 14:07:51;;;;;;;6.10;2.13;;;9.90;99.90;;;;;;5071272;28;20050;-87
2021/12/15 14:10:18;;;;;;;4.43;1.55;;;9.90;99.90;;;;;;5069433;28;20080;-87
2021/12/15 14:12:47;;;;;;;5.57;2.47;;;9.80;99.90;;;;;;5063210;28;20055;-86
2021/12/15 14:15:32;;;;;;;8.73;2.80;;;9.90;99.90;;;;;;5054592;28;20061;-79
2021/12/15 14:18:13;;;;;;;5.47;1.20;;;9.80;99.90;;;;;;5040183;28;20101;-86
2021/12/15 14:20:46;;;;;;;7.45;1.40;;;9.80;99.90;;;;;;5073769;28;20048;-87
2021/12/15 14:23:16;;;;;;;3.50;0.95;;;9.80;99.90;;;;;;5090574;28;20091;-87
2021/12/15 14:25:43;;;;;;;3.38;1.15;;;9.80;99.90;;;;;;5091095;28;20059;-86